Temperatura máxima Desde: 22-08-2017 11:00 Hasta: 18:59 Aviso por: Temperatura máxima Nivel: Amarillo info button
 

Informes METAR

 

LEZL - Sevilla, Spain
Distancia de la estación: ENE 8km
Actualización: 22/08/2017 09:00
Despejado
Despejado
 Viento de calm
Viento: Calma
Temperatura: 25°C
Rocío: 18°C
Humedad: 65%
Barómetro: 1016 hPa
Resumen: Despejado
Visibilidad: mayor de 10 km
2017/08/22 07:00 LEZL 220700Z 00000KT CAVOK 25/18 Q1016 NOSIG
LEMO - Morón, Spain
Distancia de la estación: SE 43km
Actualización: 22/08/2017 09:00
Despejado
Despejado
 Viento de SSE
Viento: SSE 6 km/h
Temperatura: 22°C
Rocío: 15°C
Humedad: 65%
Barómetro: 1017 hPa
Resumen: Despejado
Visibilidad: mayor de 10 km
2017/08/22 07:00 LEMO 220700Z 15003KT CAVOK 22/15 Q1017 NOSIG
LEJR - Jeréz, Spain
Distancia de la estación: S 71km
Actualización: 22/08/2017 09:00
Despejado
Despejado
 Viento de calm
Viento: Calma
Temperatura: 21°C
Rocío: 20°C
Humedad: 94%
Barómetro: 1017 hPa
Resumen: Despejado
Visibilidad: mayor de 10 km
2017/08/22 07:00 LEJR 220700Z 00000KT CAVOK 21/20 Q1017
 
LERT - Rota, Spain
Distancia de la estación: SSO 89km
Actualización: 22/08/2017 09:00
Parcialmente nuboso
Parcialmente nuboso
 Viento de ENE
Viento: ENE 9 km/h
Temperatura: 23°C
Rocío: 20°C
Humedad: 83%
Barómetro: 1016 hPa
Nubes: Parcialmente nuboso
Visibilidad: 9 km
2017/08/22 07:00 LERT 220700Z 07005KT 9000 NSC 23/20 Q1016 NOSIG
LEMG - Málaga, Spain
Distancia de la estación: ESE 157km
Actualización: 22/08/2017 09:00
Despejado
Despejado
 Viento de ONO
Viento: ONO 4 km/h
Temperatura: 22°C
Rocío: 15°C
Humedad: 65%
Barómetro: 1018 hPa
Resumen: Despejado
Visibilidad: mayor de 10 km
2017/08/22 07:00 LEMG 220700Z 30002KT CAVOK 22/15 Q1018 NOSIG
LEBA - Córdoba, Spain
Distancia de la estación: ENE 115km
Actualización: 22/08/2017 09:00
Despejado
Despejado
 Viento de calm
Viento: Calma
Temperatura: 24°C
Rocío: 14°C
Humedad: 54%
Barómetro: 1017 hPa
Resumen: Despejado
Visibilidad: mayor de 10 km
2017/08/22 07:00 LEBA 220700Z 00000KT CAVOK 24/14 Q1017
 
LEGR - Granada, Spain
Distancia de la estación: E 198km
Actualización: 22/08/2017 09:00
Despejado
Despejado
 Viento de variable
Viento: variable 2 km/h
Temperatura: 21°C
Rocío: 17°C
Humedad: 78%
Barómetro: 1020 hPa
Resumen: Despejado
Visibilidad: mayor de 10 km
2017/08/22 07:00 LEGR 220700Z VRB01KT CAVOK 21/17 Q1020
LEAM - Almería, Spain
Distancia de la estación: E 326km
Actualización: 22/08/2017 09:00
Despejado
Despejado
 Viento de N
Viento: N 6 km/h
Temperatura: 27°C
Índice de calor: 28°C
Rocío: 17°C
Humedad: 54%
Barómetro: 1018 hPa
Resumen: Despejado
Visibilidad: mayor de 10 km
2017/08/22 07:00 LEAM 220700Z 35003KT CAVOK 27/17 Q1018
LEMD - Madrid/Barajas, Spain
Distancia de la estación: NNE 402km
Actualización: 22/08/2017 09:00
Despejado
Despejado
 Viento de N
Viento: N 9 km/h
Temperatura: 23°C
Rocío: 15°C
Humedad: 61%
Barómetro: 1019 hPa
Resumen: Despejado
Visibilidad: mayor de 10 km
2017/08/22 07:00 LEMD 220700Z 01005KT CAVOK 23/15 Q1019 NOSIG
 
LEVD - Valladolid, Spain
Distancia de la estación: N 492km
Actualización: 22/08/2017 09:00
Despejado
Despejado
 Viento de SO
Viento: SO 7 km/h
Temperatura: 22°C
Rocío: 10°C
Humedad: 47%
Barómetro: 1020 hPa
Resumen: Despejado
Visibilidad: mayor de 10 km
2017/08/22 07:00 LEVD 220700Z 23004KT CAVOK 22/10 Q1020
LEBL - Barcelona, Spain
Distancia de la estación: NE 816km
Actualización: 22/08/2017 09:00
Poco nuboso
Poco nuboso
 Viento de variable
Viento: variable 9 km/h
Temperatura: 24°C
Rocío: 20°C
Humedad: 78%
Barómetro: 1018 hPa
Nubes: Poco nuboso
Visibilidad: 10 km
Detalles de las nubes: Poco nuboso 457 m
2017/08/22 07:00 LEBL 220700Z VRB05KT 9999 FEW015 24/20 Q1018 NOSIG
LEVC - Valencia, Spain
Distancia de la estación: ENE 535km
Actualización: 22/08/2017 09:00
Despejado
Despejado
 Viento de calm
Viento: Calma
Temperatura: 24°C
Rocío: 17°C
Humedad: 65%
Barómetro: 1018 hPa
Resumen: Despejado
Visibilidad: mayor de 10 km
2017/08/22 07:00 LEVC 220700Z 00000KT CAVOK 24/17 Q1018 NOSIG